createdAt,value
2023-04-09T00:00:56.340Z,8.24
2023-04-09T00:01:56.384Z,8.28
2023-04-09T00:02:56.348Z,8.36
2023-04-09T00:03:56.447Z,8.31
2023-04-09T00:04:56.277Z,8.28
2023-04-09T00:05:56.258Z,8.29
2023-04-09T00:06:56.245Z,8.32
2023-04-09T00:07:56.231Z,8.28
2023-04-09T00:08:56.215Z,8.28
2023-04-09T00:09:56.195Z,8.34
2023-04-09T00:10:56.187Z,8.37
2023-04-09T00:11:56.184Z,8.34
2023-04-09T00:12:56.153Z,8.32
2023-04-09T00:13:56.134Z,8.34
2023-04-09T00:14:56.120Z,8.32
2023-04-09T00:15:56.162Z,8.37
2023-04-09T00:16:56.090Z,8.39
2023-04-09T00:17:56.115Z,8.37
2023-04-09T00:18:56.060Z,8.37
2023-04-09T00:19:56.044Z,8.40
2023-04-09T00:20:56.027Z,8.43
2023-04-09T00:21:56.009Z,8.40
2023-04-09T00:22:55.997Z,8.36
2023-04-09T00:23:55.979Z,8.34
2023-04-09T00:24:55.969Z,8.24
2023-04-09T00:25:55.948Z,8.17
2023-04-09T00:26:55.935Z,8.24
2023-04-09T00:27:55.935Z,8.32
2023-04-09T00:28:55.907Z,8.37
2023-04-09T00:29:55.885Z,8.39
2023-04-09T00:30:55.893Z,8.37
2023-04-09T00:31:55.967Z,8.29
2023-04-09T00:32:55.844Z,8.36
2023-04-09T00:33:55.825Z,8.25
2023-04-09T00:34:55.810Z,8.18
2023-04-09T00:35:55.810Z,8.04
2023-04-09T00:36:55.779Z,8.12
2023-04-09T00:37:55.761Z,7.92
2023-04-09T00:38:55.751Z,7.92
2023-04-09T00:39:55.730Z,7.94
2023-04-09T00:40:55.744Z,7.94
2023-04-09T00:41:55.698Z,7.94
2023-04-09T00:42:55.699Z,7.92
2023-04-09T00:43:55.691Z,7.85
2023-04-09T00:44:55.673Z,7.77
2023-04-09T00:45:55.656Z,7.77
2023-04-09T00:46:55.630Z,7.63
2023-04-09T00:47:55.702Z,7.58
2023-04-09T00:48:55.607Z,7.63
2023-04-09T00:49:55.577Z,7.55
2023-04-09T00:50:55.579Z,7.69
2023-04-09T00:51:55.545Z,7.73
2023-04-09T00:52:55.535Z,7.84
2023-04-09T00:53:55.528Z,7.92
2023-04-09T00:54:55.512Z,7.91
2023-04-09T00:55:55.484Z,7.91
2023-04-09T00:56:55.476Z,8.02
2023-04-09T00:57:55.463Z,8.07
2023-04-09T00:58:55.443Z,8.24
2023-04-09T00:59:55.445Z,8.20
2023-04-09T01:00:55.424Z,8.24
2023-04-09T01:01:55.450Z,8.21
2023-04-09T01:02:55.437Z,8.18
2023-04-09T01:03:55.381Z,8.07
2023-04-09T01:04:55.352Z,8.12
2023-04-09T01:05:55.351Z,8.10
2023-04-09T01:06:55.316Z,8.00
2023-04-09T01:07:55.299Z,8.02
2023-04-09T01:08:55.338Z,8.00
2023-04-09T01:09:55.268Z,8.03
2023-04-09T01:10:55.264Z,7.94
2023-04-09T01:11:55.234Z,7.92
2023-04-09T01:12:55.222Z,8.10
2023-04-09T01:13:55.202Z,8.00
2023-04-09T01:14:55.191Z,8.12
2023-04-09T01:15:55.195Z,8.25
2023-04-09T01:16:55.178Z,8.03
2023-04-09T01:17:55.159Z,7.94
2023-04-09T01:18:55.134Z,7.92
2023-04-09T01:19:55.107Z,7.76
2023-04-09T01:20:55.095Z,7.74
2023-04-09T01:21:55.088Z,7.76
2023-04-09T01:22:55.067Z,7.79
2023-04-09T01:23:55.053Z,7.73
2023-04-09T01:24:55.040Z,7.67
2023-04-09T01:25:55.019Z,7.63
2023-04-09T01:26:55.003Z,7.63
2023-04-09T01:27:54.990Z,7.52
2023-04-09T01:28:55.031Z,7.58
2023-04-09T01:29:54.954Z,7.63
2023-04-09T01:30:54.946Z,7.63
2023-04-09T01:31:54.948Z,7.62
2023-04-09T01:32:54.931Z,7.63
2023-04-09T01:33:54.894Z,7.71
2023-04-09T01:34:54.889Z,7.81
2023-04-09T01:35:54.919Z,7.77
2023-04-09T01:36:54.850Z,7.84
2023-04-09T01:37:54.830Z,7.74
2023-04-09T01:38:55.019Z,7.77
2023-04-09T01:39:54.803Z,7.82
2023-04-09T01:40:54.800Z,7.77
2023-04-09T01:41:54.770Z,7.79
2023-04-09T01:42:54.766Z,7.70
2023-04-09T01:43:54.746Z,7.76
2023-04-09T01:44:54.728Z,7.89
2023-04-09T01:45:54.753Z,7.94
2023-04-09T01:46:54.696Z,7.92
2023-04-09T01:47:54.727Z,7.99
2023-04-09T01:48:54.851Z,8.00
2023-04-09T01:49:54.646Z,7.96
2023-04-09T01:50:54.634Z,7.84
2023-04-09T01:51:54.621Z,7.92
2023-04-09T01:52:54.608Z,7.88
2023-04-09T01:53:54.603Z,7.79
2023-04-09T01:54:54.579Z,7.77
2023-04-09T01:55:54.561Z,7.76
2023-04-09T01:56:54.543Z,7.71
2023-04-09T01:57:54.523Z,7.70
2023-04-09T01:58:54.778Z,7.71
2023-04-09T01:59:54.492Z,7.69
2023-04-09T02:00:54.479Z,7.63
2023-04-09T02:01:54.602Z,7.73
2023-04-09T02:02:54.688Z,7.71
2023-04-09T02:03:54.701Z,7.76
2023-04-09T02:04:54.421Z,7.69
2023-04-09T02:05:54.407Z,7.69
2023-04-09T02:06:54.385Z,7.66
2023-04-09T02:07:54.369Z,7.67
2023-04-09T02:08:54.461Z,7.57
2023-04-09T02:09:54.337Z,7.63
2023-04-09T02:10:54.324Z,7.71
2023-04-09T02:11:54.308Z,7.66
2023-04-09T02:12:54.296Z,7.63
2023-04-09T02:13:54.282Z,7.60
2023-04-09T02:14:54.258Z,7.67
2023-04-09T02:15:54.250Z,7.63
2023-04-09T02:16:54.231Z,7.52
2023-04-09T02:17:54.283Z,7.52
2023-04-09T02:18:54.588Z,7.42
2023-04-09T02:19:54.199Z,7.54
2023-04-09T02:20:54.179Z,7.51
2023-04-09T02:21:54.145Z,7.54
2023-04-09T02:22:54.132Z,7.54
2023-04-09T02:23:54.116Z,7.52
2023-04-09T02:24:54.109Z,7.48
2023-04-09T02:25:54.113Z,7.52
2023-04-09T02:26:54.084Z,7.41
2023-04-09T02:27:54.062Z,7.45
2023-04-09T02:28:54.331Z,7.47
2023-04-09T02:29:54.023Z,7.45
2023-04-09T02:30:54.037Z,7.45
2023-04-09T02:31:53.986Z,7.39
2023-04-09T02:32:54.022Z,7.37
2023-04-09T02:33:53.965Z,7.39
2023-04-09T02:34:53.942Z,7.39
2023-04-09T02:35:53.964Z,7.45
2023-04-09T02:36:53.914Z,7.42
2023-04-09T02:37:53.890Z,7.39
2023-04-09T02:38:54.086Z,7.37
2023-04-09T02:39:53.864Z,7.29
2023-04-09T02:40:53.847Z,7.42
2023-04-09T02:41:53.860Z,7.34
2023-04-09T02:42:53.878Z,7.47
2023-04-09T02:43:53.815Z,7.34
2023-04-09T02:44:53.819Z,7.37
2023-04-09T02:45:53.765Z,7.47
2023-04-09T02:46:53.755Z,7.39
2023-04-09T02:47:53.765Z,7.36
2023-04-09T02:48:53.802Z,7.33
2023-04-09T02:49:53.698Z,7.33
2023-04-09T02:50:53.688Z,7.33
2023-04-09T02:51:53.688Z,7.26
2023-04-09T02:52:53.656Z,7.36
2023-04-09T02:53:53.636Z,7.27
2023-04-09T02:54:53.623Z,7.21
2023-04-09T02:55:53.632Z,7.24
2023-04-09T02:56:53.599Z,7.26
2023-04-09T02:57:53.568Z,7.26
2023-04-09T02:58:53.726Z,7.21
2023-04-09T02:59:53.542Z,7.19
2023-04-09T03:00:53.536Z,7.23
2023-04-09T03:01:53.579Z,7.23
2023-04-09T03:02:53.598Z,7.23
2023-04-09T03:03:53.614Z,7.12
2023-04-09T03:04:53.471Z,7.11
2023-04-09T03:05:53.443Z,7.16
2023-04-09T03:06:53.431Z,7.16
2023-04-09T03:07:53.505Z,7.23
2023-04-09T03:08:53.583Z,7.34
2023-04-09T03:09:53.377Z,7.34
2023-04-09T03:10:53.365Z,7.47
2023-04-09T03:11:53.348Z,7.41
2023-04-09T03:12:53.334Z,7.52
2023-04-09T03:13:53.316Z,7.52
2023-04-09T03:14:53.306Z,7.44
2023-04-09T03:15:53.324Z,7.63
2023-04-09T03:16:53.268Z,7.67
2023-04-09T03:17:53.302Z,7.60
2023-04-09T03:18:53.492Z,7.67
2023-04-09T03:19:53.220Z,7.71
2023-04-09T03:20:53.203Z,7.74
2023-04-09T03:21:53.186Z,7.77
2023-04-09T03:22:53.170Z,7.71
2023-04-09T03:23:53.172Z,7.66
2023-04-09T03:24:53.140Z,7.73
2023-04-09T03:25:53.121Z,7.51
2023-04-09T03:26:53.108Z,7.47
2023-04-09T03:27:53.095Z,7.36
2023-04-09T03:28:53.377Z,7.41
2023-04-09T03:29:53.056Z,7.23
2023-04-09T03:30:53.069Z,7.24
2023-04-09T03:31:53.029Z,7.21
2023-04-09T03:32:53.060Z,7.14
2023-04-09T03:33:53.005Z,7.18
2023-04-09T03:34:52.976Z,7.04
2023-04-09T03:35:53.117Z,7.09
2023-04-09T03:36:52.944Z,7.01
2023-04-09T03:37:52.933Z,7.04
2023-04-09T03:38:53.181Z,6.99
2023-04-09T03:39:52.918Z,6.91
2023-04-09T03:40:52.883Z,6.89
2023-04-09T03:41:52.866Z,6.89
2023-04-09T03:42:52.845Z,6.83
2023-04-09T03:43:52.835Z,6.86
2023-04-09T03:44:52.815Z,6.91
2023-04-09T03:45:52.802Z,6.93
2023-04-09T03:46:52.982Z,6.96
2023-04-09T03:47:52.808Z,7.15
2023-04-09T03:48:53.002Z,7.12
2023-04-09T03:49:52.736Z,7.14
2023-04-09T03:50:52.720Z,7.15
2023-04-09T03:51:52.705Z,7.23
2023-04-09T03:52:52.685Z,7.26
2023-04-09T03:53:52.679Z,7.12
2023-04-09T03:54:52.653Z,7.15
2023-04-09T03:55:52.658Z,7.08
2023-04-09T03:56:52.617Z,7.00
2023-04-09T03:57:52.604Z,6.97
2023-04-09T03:58:52.967Z,7.00
2023-04-09T03:59:52.595Z,6.94
2023-04-09T04:00:52.552Z,6.93
2023-04-09T04:01:52.625Z,7.01
2023-04-09T04:02:52.888Z,6.96
2023-04-09T04:03:52.604Z,6.89
2023-04-09T04:04:52.540Z,6.93
2023-04-09T04:05:52.474Z,7.01
2023-04-09T04:06:52.452Z,6.89
2023-04-09T04:07:52.450Z,6.97
2023-04-09T04:08:52.712Z,6.91
2023-04-09T04:09:52.405Z,6.68
2023-04-09T04:10:52.386Z,6.72
2023-04-09T04:11:52.389Z,6.75
2023-04-09T04:12:52.399Z,6.68
2023-04-09T04:13:52.339Z,6.72
2023-04-09T04:14:52.321Z,6.73
2023-04-09T04:15:52.313Z,6.79
2023-04-09T04:16:52.293Z,6.76
2023-04-09T04:17:52.310Z,6.69
2023-04-09T04:18:52.439Z,6.72
2023-04-09T04:19:52.244Z,6.76
2023-04-09T04:20:52.224Z,6.91
2023-04-09T04:21:52.208Z,6.93
2023-04-09T04:22:52.188Z,6.97
2023-04-09T04:23:52.174Z,7.00
2023-04-09T04:24:52.159Z,6.91
2023-04-09T04:25:52.142Z,6.87
2023-04-09T04:26:52.130Z,6.89
2023-04-09T04:27:52.129Z,6.81
2023-04-09T04:28:52.323Z,6.79
2023-04-09T04:29:52.076Z,6.94
2023-04-09T04:30:52.061Z,6.87
2023-04-09T04:31:52.087Z,6.81
2023-04-09T04:32:52.057Z,6.91
2023-04-09T04:33:52.018Z,6.78
2023-04-09T04:34:52.013Z,6.81
2023-04-09T04:35:52.036Z,6.87
2023-04-09T04:36:51.977Z,6.76
2023-04-09T04:37:51.956Z,6.71
2023-04-09T04:38:52.209Z,6.76
2023-04-09T04:39:51.921Z,6.73
2023-04-09T04:40:51.901Z,6.82
2023-04-09T04:41:51.883Z,6.75
2023-04-09T04:42:51.867Z,6.81
2023-04-09T04:43:51.868Z,6.81
2023-04-09T04:44:51.833Z,6.76
2023-04-09T04:45:53.574Z,6.81
2023-04-09T04:46:51.802Z,6.79
2023-04-09T04:47:51.826Z,6.81
2023-04-09T04:48:51.982Z,6.90
2023-04-09T04:49:51.751Z,6.87
2023-04-09T04:50:51.732Z,6.94
2023-04-09T04:51:51.720Z,6.99
2023-04-09T04:52:51.711Z,6.87
2023-04-09T04:53:51.686Z,6.79
2023-04-09T04:54:51.670Z,7.05
2023-04-09T04:55:51.656Z,6.94
2023-04-09T04:56:51.632Z,6.96
2023-04-09T04:57:51.621Z,6.89
2023-04-09T04:58:51.910Z,6.91
2023-04-09T04:59:51.621Z,6.89
2023-04-09T05:00:51.638Z,6.83
2023-04-09T05:01:51.579Z,6.87
2023-04-09T05:02:51.844Z,6.93
2023-04-09T05:03:51.639Z,6.90
2023-04-09T05:04:51.509Z,7.00
2023-04-09T05:05:51.502Z,7.00
2023-04-09T05:06:51.477Z,7.01
2023-04-09T05:07:51.459Z,7.14
2023-04-09T05:08:51.708Z,7.27
2023-04-09T05:09:51.424Z,7.45
2023-04-09T05:10:51.421Z,7.36
2023-04-09T05:11:51.409Z,7.41
2023-04-09T05:12:51.422Z,7.50
2023-04-09T05:13:51.370Z,7.63
2023-04-09T05:14:51.351Z,7.63
2023-04-09T05:16:51.473Z,7.71
2023-04-09T05:17:51.329Z,7.67
2023-04-09T05:18:51.532Z,7.70
2023-04-09T05:19:51.270Z,7.69
2023-04-09T05:20:51.252Z,7.66
2023-04-09T05:21:51.237Z,7.58
2023-04-09T05:22:51.220Z,7.63
2023-04-09T05:23:51.200Z,7.54
2023-04-09T05:24:51.181Z,7.54
2023-04-09T05:25:51.164Z,7.51
2023-04-09T05:26:51.155Z,7.42
2023-04-09T05:27:51.132Z,7.47
2023-04-09T05:28:51.314Z,7.51
2023-04-09T05:29:51.099Z,7.70
2023-04-09T05:30:51.376Z,7.74
2023-04-09T05:31:51.070Z,7.81
2023-04-09T05:32:51.126Z,7.79
2023-04-09T05:33:51.040Z,7.76
2023-04-09T05:34:51.025Z,7.73
2023-04-09T05:35:51.062Z,7.70
2023-04-09T05:36:51.007Z,7.74
2023-04-09T05:37:50.975Z,7.62
2023-04-09T05:38:51.313Z,7.66
2023-04-09T05:39:50.959Z,7.54
2023-04-09T05:40:50.933Z,7.47
2023-04-09T05:41:50.914Z,7.47
2023-04-09T05:42:50.907Z,7.42
2023-04-09T05:43:51.046Z,7.41
2023-04-09T05:44:50.889Z,7.41
2023-04-09T05:45:50.912Z,7.42
2023-04-09T05:46:50.842Z,7.48
2023-04-09T05:47:50.834Z,7.39
2023-04-09T05:48:51.068Z,7.47
2023-04-09T05:49:50.807Z,7.52
2023-04-09T05:50:55.210Z,7.51
2023-04-09T05:51:50.760Z,7.58
2023-04-09T05:52:50.747Z,7.67
2023-04-09T05:53:51.073Z,7.74
2023-04-09T05:54:50.711Z,7.79
2023-04-09T05:55:50.721Z,7.84
2023-04-09T05:56:50.679Z,7.84
2023-04-09T05:57:50.659Z,7.85
2023-04-09T05:58:50.648Z,7.94
2023-04-09T05:59:50.670Z,7.89
2023-04-09T06:00:50.618Z,7.79
2023-04-09T06:01:50.646Z,7.77
2023-04-09T06:02:50.738Z,7.67
2023-04-09T06:03:50.904Z,7.62
2023-04-09T06:04:50.668Z,7.63
2023-04-09T06:05:50.551Z,7.52
2023-04-09T06:06:50.524Z,7.54
2023-04-09T06:07:50.503Z,7.55
2023-04-09T06:08:50.495Z,7.55
2023-04-09T06:09:50.472Z,7.42
2023-04-09T06:10:50.465Z,7.51
2023-04-09T06:11:50.441Z,7.47
2023-04-09T06:12:50.428Z,7.52
2023-04-09T06:13:50.570Z,7.54
2023-04-09T06:14:50.400Z,7.70
2023-04-09T06:15:50.410Z,7.58
2023-04-09T06:16:50.367Z,7.67
2023-04-09T06:17:50.401Z,7.74
2023-04-09T06:18:50.335Z,7.77
2023-04-09T06:19:50.313Z,7.84
2023-04-09T06:20:50.325Z,7.88
2023-04-09T06:21:50.287Z,8.00
2023-04-09T06:22:50.303Z,7.92
2023-04-09T06:23:50.539Z,8.07
2023-04-09T06:24:50.241Z,8.18
2023-04-09T06:25:50.220Z,8.28
2023-04-09T06:26:50.208Z,8.28
2023-04-09T06:27:50.189Z,8.27
2023-04-09T06:28:50.186Z,8.34
2023-04-09T06:29:50.159Z,8.47
2023-04-09T06:30:50.191Z,8.39
2023-04-09T06:31:50.125Z,8.39
2023-04-09T06:32:54.457Z,8.25
2023-04-09T06:33:50.245Z,8.37
2023-04-09T06:34:50.081Z,8.43
2023-04-09T06:35:50.104Z,8.32
2023-04-09T06:36:50.081Z,8.29
2023-04-09T06:37:50.038Z,8.24
2023-04-09T06:38:50.047Z,8.20
2023-04-09T06:40:00.490Z,8.18
2023-04-09T06:40:50.000Z,8.24
2023-04-09T06:41:49.969Z,8.24
2023-04-09T06:42:49.958Z,8.22
2023-04-09T06:43:50.226Z,8.28
2023-04-09T06:44:49.926Z,8.31
2023-04-09T06:45:49.910Z,8.42
2023-04-09T06:46:49.981Z,8.54
2023-04-09T06:47:50.036Z,8.70
2023-04-09T06:48:49.869Z,8.65
2023-04-09T06:49:49.851Z,8.67
2023-04-09T06:50:49.839Z,8.71
2023-04-09T06:51:49.825Z,8.80
2023-04-09T06:52:49.828Z,8.79
2023-04-09T06:53:49.958Z,8.80
2023-04-09T06:54:49.772Z,8.88
2023-04-09T06:55:49.757Z,8.96
2023-04-09T06:56:49.753Z,8.86
2023-04-09T06:57:49.724Z,8.94
2023-04-09T06:58:49.713Z,8.94
2023-04-09T06:59:49.695Z,8.97
2023-04-09T07:00:49.854Z,8.96
2023-04-09T07:01:51.491Z,8.98
2023-04-09T07:02:49.999Z,9.13
2023-04-09T07:03:49.796Z,9.19
2023-04-09T07:04:49.659Z,9.19
2023-04-09T07:05:49.606Z,9.24
2023-04-09T07:06:49.595Z,9.55
2023-04-09T07:07:49.575Z,9.55
2023-04-09T07:08:49.598Z,9.56
2023-04-09T07:09:49.548Z,9.55
2023-04-09T07:10:49.541Z,9.70
2023-04-09T07:11:49.516Z,9.67
2023-04-09T07:12:49.504Z,9.68
2023-04-09T07:13:49.489Z,9.73
2023-04-09T07:14:49.478Z,9.74
2023-04-09T07:15:49.486Z,9.70
2023-04-09T07:16:49.450Z,9.73
2023-04-09T07:17:49.463Z,9.81
2023-04-09T07:18:49.416Z,9.77
2023-04-09T07:19:49.407Z,9.81
2023-04-09T07:20:49.393Z,9.80
2023-04-09T07:21:49.371Z,9.73
2023-04-09T07:22:49.371Z,9.65
2023-04-09T07:23:49.351Z,9.75
2023-04-09T07:24:49.356Z,9.85
2023-04-09T07:25:49.315Z,9.70
2023-04-09T07:26:51.188Z,9.67
2023-04-09T07:27:49.284Z,9.56
2023-04-09T07:28:49.288Z,9.45
2023-04-09T07:29:49.262Z,9.60
2023-04-09T07:30:49.385Z,9.53
2023-04-09T07:31:49.320Z,9.50
2023-04-09T07:32:49.275Z,9.55
2023-04-09T07:33:49.201Z,9.50
2023-04-09T07:34:49.192Z,9.48
2023-04-09T07:35:49.198Z,9.48
2023-04-09T07:36:49.161Z,9.49
2023-04-09T07:37:49.142Z,9.56
2023-04-09T07:38:49.136Z,9.56
2023-04-09T07:39:49.113Z,9.63
2023-04-09T07:40:49.126Z,9.68
2023-04-09T07:41:49.086Z,9.58
2023-04-09T07:42:49.077Z,9.56
2023-04-09T07:43:49.055Z,9.56
2023-04-09T07:44:49.047Z,9.55
2023-04-09T07:45:49.323Z,9.52
2023-04-09T07:46:49.065Z,9.60
2023-04-09T07:47:49.023Z,9.56
2023-04-09T07:48:48.994Z,9.62
2023-04-09T07:49:48.991Z,9.58
2023-04-09T07:50:48.990Z,9.59
2023-04-09T07:51:48.955Z,9.67
2023-04-09T07:52:48.930Z,9.58
2023-04-09T07:53:48.928Z,9.60
2023-04-09T07:54:48.917Z,9.71
2023-04-09T07:55:48.902Z,9.80
2023-04-09T07:56:48.890Z,9.81
2023-04-09T07:57:48.863Z,9.83
2023-04-09T07:58:48.842Z,9.81
2023-04-09T07:59:48.830Z,9.78
2023-04-09T08:00:48.832Z,9.99
2023-04-09T08:01:48.849Z,9.89
2023-04-09T08:02:49.090Z,9.89
2023-04-09T08:03:48.988Z,9.92
2023-04-09T08:04:48.994Z,9.93
2023-04-09T08:05:48.748Z,10.01
2023-04-09T08:06:48.728Z,10.02
2023-04-09T08:07:48.719Z,9.93
2023-04-09T08:08:48.707Z,10.07
2023-04-09T08:09:48.705Z,9.98
2023-04-09T08:10:48.673Z,10.02
2023-04-09T08:11:48.670Z,10.06
2023-04-09T08:12:48.877Z,10.04
2023-04-09T08:13:48.631Z,10.06
2023-04-09T08:14:48.616Z,10.06
2023-04-09T08:15:48.605Z,10.06
2023-04-09T08:16:48.728Z,10.14
2023-04-09T08:17:48.681Z,10.14
2023-04-09T08:18:48.558Z,10.06
2023-04-09T08:19:48.549Z,10.17
2023-04-09T08:20:48.532Z,10.09
2023-04-09T08:21:48.522Z,10.06
2023-04-09T08:22:48.504Z,10.10
2023-04-09T08:23:48.489Z,10.10
2023-04-09T08:24:48.475Z,10.09
2023-04-09T08:25:48.465Z,10.10
2023-04-09T08:26:48.450Z,9.98
2023-04-09T08:27:48.438Z,9.99
2023-04-09T08:28:48.447Z,9.98
2023-04-09T08:29:48.409Z,10.02
2023-04-09T08:30:48.390Z,9.99
2023-04-09T08:31:48.399Z,10.11
2023-04-09T08:32:48.415Z,10.14
2023-04-09T08:33:48.350Z,10.16
2023-04-09T08:34:48.333Z,10.17
2023-04-09T08:35:48.349Z,10.18
2023-04-09T08:36:48.342Z,10.24
2023-04-09T08:37:48.296Z,10.35
2023-04-09T08:38:48.276Z,10.43
2023-04-09T08:39:48.269Z,10.49
2023-04-09T08:40:48.249Z,10.43
2023-04-09T08:41:48.240Z,10.47
2023-04-09T08:42:48.231Z,10.51
2023-04-09T08:44:48.215Z,10.60
2023-04-09T08:45:48.203Z,10.58
2023-04-09T08:46:48.163Z,10.49
2023-04-09T08:47:48.269Z,10.55
2023-04-09T08:48:48.137Z,10.47
2023-04-09T08:49:48.125Z,10.60
2023-04-09T08:50:48.107Z,10.68
2023-04-09T08:51:48.096Z,10.84
2023-04-09T08:52:48.118Z,10.84
2023-04-09T08:53:48.073Z,10.66
2023-04-09T08:54:48.114Z,10.83
2023-04-09T08:55:48.041Z,10.93
2023-04-09T08:56:48.033Z,10.94
2023-04-09T08:57:48.015Z,10.81
2023-04-09T08:58:47.994Z,10.86
2023-04-09T08:59:47.989Z,10.88
2023-04-09T09:00:47.986Z,10.88
2023-04-09T09:01:48.170Z,10.84
2023-04-09T09:02:47.988Z,10.84
2023-04-09T09:03:47.996Z,10.88
2023-04-09T09:04:47.911Z,10.86
2023-04-09T09:05:47.899Z,11.09
2023-04-09T09:06:47.883Z,11.12
2023-04-09T09:07:47.874Z,11.27
2023-04-09T09:08:47.854Z,11.36
2023-04-09T09:09:47.845Z,11.39
2023-04-09T09:10:47.827Z,11.49
2023-04-09T09:11:47.816Z,11.64
2023-04-09T09:12:47.803Z,11.79
2023-04-09T09:13:47.791Z,11.63
2023-04-09T09:14:47.771Z,11.63
2023-04-09T09:15:47.765Z,11.70
2023-04-09T09:16:47.821Z,11.69
2023-04-09T09:17:47.760Z,11.60
2023-04-09T09:18:47.729Z,11.54
2023-04-09T09:19:47.716Z,11.62
2023-04-09T09:20:47.692Z,11.59
2023-04-09T09:21:47.682Z,11.46
2023-04-09T09:22:47.667Z,11.44
2023-04-09T09:23:47.653Z,11.33
2023-04-09T09:24:49.690Z,11.36
2023-04-09T09:25:47.635Z,11.46
2023-04-09T09:26:47.619Z,11.60
2023-04-09T09:27:47.601Z,11.67
2023-04-09T09:28:47.585Z,11.74
2023-04-09T09:29:47.573Z,11.82
2023-04-09T09:30:49.188Z,11.88
2023-04-09T09:31:47.547Z,11.98
2023-04-09T09:32:47.654Z,12.23
2023-04-09T09:33:47.536Z,12.19
2023-04-09T09:34:47.507Z,12.21
2023-04-09T09:35:47.550Z,12.08
2023-04-09T09:36:47.481Z,12.00
2023-04-09T09:37:47.472Z,11.98
2023-04-09T09:38:47.454Z,11.90
2023-04-09T09:39:47.445Z,11.87
2023-04-09T09:40:47.430Z,11.82
2023-04-09T09:41:47.594Z,11.85
2023-04-09T09:42:47.404Z,11.88
2023-04-09T09:43:47.395Z,11.85
2023-04-09T09:44:47.380Z,11.79
2023-04-09T09:45:47.397Z,11.88
2023-04-09T09:46:47.351Z,11.87
2023-04-09T09:47:47.387Z,11.93
2023-04-09T09:48:47.455Z,11.87
2023-04-09T09:49:47.315Z,11.72
2023-04-09T09:50:47.301Z,11.64
2023-04-09T09:51:47.294Z,11.74
2023-04-09T09:52:47.272Z,11.79
2023-04-09T09:53:49.572Z,11.72
2023-04-09T09:54:47.248Z,11.75
2023-04-09T09:55:47.246Z,11.85
2023-04-09T09:56:47.223Z,11.72
2023-04-09T09:57:47.218Z,11.63
2023-04-09T09:58:47.200Z,11.62
2023-04-09T09:59:47.186Z,11.60
2023-04-09T10:00:47.170Z,11.63
2023-04-09T10:01:47.186Z,11.63
2023-04-09T10:02:47.316Z,11.48
2023-04-09T10:03:47.134Z,11.49
2023-04-09T10:04:47.241Z,11.53
2023-04-09T10:05:47.107Z,11.44
2023-04-09T10:06:47.097Z,11.41
2023-04-09T10:07:47.087Z,11.36
2023-04-09T10:08:47.076Z,11.42
2023-04-09T10:09:47.052Z,11.38
2023-04-09T10:10:47.042Z,11.46
2023-04-09T10:11:47.027Z,11.66
2023-04-09T10:12:47.011Z,11.78
2023-04-09T10:13:47.003Z,11.81
2023-04-09T10:14:46.984Z,11.81
2023-04-09T10:15:47.027Z,11.74
2023-04-09T10:16:46.960Z,11.64
2023-04-09T10:17:46.967Z,11.70
2023-04-09T10:18:46.932Z,11.81
2023-04-09T10:19:46.921Z,11.70
2023-04-09T10:20:46.936Z,11.63
2023-04-09T10:21:46.893Z,11.67
2023-04-09T10:22:46.877Z,11.64
2023-04-09T10:23:46.868Z,11.60
2023-04-09T10:24:46.850Z,11.67
2023-04-09T10:25:46.839Z,11.77
2023-04-09T10:26:46.841Z,11.87
2023-04-09T10:27:46.813Z,11.93
2023-04-09T10:28:46.802Z,12.05
2023-04-09T10:29:46.788Z,12.19
2023-04-09T10:30:46.876Z,12.07
2023-04-09T10:31:46.761Z,12.07
2023-04-09T10:32:46.776Z,12.13
2023-04-09T10:33:46.740Z,12.07
2023-04-09T10:34:46.715Z,12.03
2023-04-09T10:35:46.729Z,12.03
2023-04-09T10:36:46.724Z,12.03
2023-04-09T10:37:46.683Z,12.03
2023-04-09T10:38:46.667Z,11.97
2023-04-09T10:39:46.656Z,11.85
2023-04-09T10:40:46.641Z,11.84
2023-04-09T10:41:46.633Z,11.79
2023-04-09T10:42:46.616Z,11.85
2023-04-09T10:43:46.603Z,11.84
2023-04-09T10:44:46.593Z,11.79
2023-04-09T10:45:46.579Z,11.90
2023-04-09T10:46:46.650Z,11.94
2023-04-09T10:47:46.609Z,11.90
2023-04-09T10:48:46.536Z,11.90
2023-04-09T10:49:46.523Z,11.82
2023-04-09T10:50:46.513Z,11.82
2023-04-09T10:51:46.506Z,11.81
2023-04-09T10:52:46.525Z,11.84
2023-04-09T10:53:46.475Z,11.88
2023-04-09T10:54:46.730Z,11.88
2023-04-09T10:55:46.454Z,11.88
2023-04-09T10:56:46.434Z,12.01
2023-04-09T10:57:46.428Z,12.05
2023-04-09T10:58:46.404Z,11.96
2023-04-09T10:59:46.402Z,12.05
2023-04-09T11:00:46.385Z,12.08
2023-04-09T11:01:46.408Z,12.05
2023-04-09T11:02:46.483Z,12.13
2023-04-09T11:03:46.390Z,12.19
2023-04-09T11:04:46.347Z,12.31
2023-04-09T11:05:46.317Z,12.21
2023-04-09T11:06:46.301Z,12.18
2023-04-09T11:07:46.290Z,12.25
2023-04-09T11:08:46.296Z,12.15
2023-04-09T11:09:46.272Z,12.12
2023-04-09T11:10:46.259Z,12.15
2023-04-09T11:11:46.238Z,12.22
2023-04-09T11:12:46.242Z,12.21
2023-04-09T11:13:46.212Z,12.26
2023-04-09T11:14:46.193Z,12.21
2023-04-09T11:15:46.238Z,12.25
2023-04-09T11:16:46.203Z,12.34
2023-04-09T11:17:46.194Z,12.33
2023-04-09T11:18:46.143Z,12.49
2023-04-09T11:19:46.133Z,12.52
2023-04-09T11:20:46.117Z,12.71
2023-04-09T11:21:46.132Z,12.71
2023-04-09T11:22:46.089Z,12.58
2023-04-09T11:23:46.080Z,12.61
2023-04-09T11:24:46.095Z,12.62
2023-04-09T11:25:46.054Z,12.62
2023-04-09T11:26:46.040Z,12.62
2023-04-09T11:27:47.043Z,12.67
2023-04-09T11:28:46.015Z,12.66
2023-04-09T11:29:46.001Z,12.66
2023-04-09T11:30:45.985Z,12.59
2023-04-09T11:31:45.999Z,12.52
2023-04-09T11:32:45.997Z,12.55
2023-04-09T11:33:45.950Z,12.51
2023-04-09T11:34:45.935Z,12.58
2023-04-09T11:35:45.981Z,12.67
2023-04-09T11:36:45.910Z,12.79
2023-04-09T11:37:45.900Z,12.95
2023-04-09T11:38:45.885Z,12.87
2023-04-09T11:39:45.874Z,12.74
2023-04-09T11:40:45.880Z,12.79
2023-04-09T11:41:45.855Z,12.77
2023-04-09T11:42:45.835Z,12.79
2023-04-09T11:43:45.823Z,12.87
2023-04-09T11:44:45.809Z,12.95
2023-04-09T11:45:45.799Z,12.94
2023-04-09T11:46:45.842Z,13.04
2023-04-09T11:47:45.841Z,13.31
2023-04-09T11:48:45.774Z,13.41
2023-04-09T11:49:45.751Z,13.50
2023-04-09T11:50:45.781Z,13.38
2023-04-09T11:51:45.747Z,13.41
2023-04-09T11:52:45.714Z,13.38
2023-04-09T11:53:45.704Z,13.38
2023-04-09T11:54:45.685Z,13.36
2023-04-09T11:55:45.679Z,13.38
2023-04-09T11:56:45.687Z,13.39
2023-04-09T11:57:45.675Z,13.53
2023-04-09T11:58:45.648Z,13.66
2023-04-09T11:59:45.733Z,13.69
2023-04-09T12:00:45.722Z,13.91
2023-04-09T12:01:45.717Z,14.13
2023-04-09T12:02:45.842Z,14.11
2023-04-09T12:03:45.673Z,13.91
2023-04-09T12:04:45.673Z,13.71
2023-04-09T12:05:48.567Z,13.68
2023-04-09T12:06:45.549Z,13.65
2023-04-09T12:07:51.843Z,13.57
2023-04-09T12:08:45.527Z,13.46
2023-04-09T12:09:45.511Z,13.50
2023-04-09T12:10:45.498Z,13.54
2023-04-09T12:11:45.504Z,13.66
2023-04-09T12:12:45.495Z,13.87
2023-04-09T12:13:45.466Z,14.09
2023-04-09T12:14:45.654Z,13.96
2023-04-09T12:15:45.439Z,14.01
2023-04-09T12:16:45.454Z,14.02
2023-04-09T12:17:45.463Z,13.93
2023-04-09T12:18:45.407Z,13.76
2023-04-09T12:19:45.395Z,13.69
2023-04-09T12:20:45.393Z,13.63
2023-04-09T12:21:45.365Z,13.63
2023-04-09T12:22:45.359Z,13.73
2023-04-09T12:23:45.347Z,13.68
2023-04-09T12:24:45.337Z,13.80
2023-04-09T12:25:45.360Z,13.75
2023-04-09T12:26:45.317Z,13.93
2023-04-09T12:27:45.297Z,13.96
2023-04-09T12:28:45.327Z,14.06
2023-04-09T12:29:45.272Z,14.24
2023-04-09T12:30:45.270Z,14.34
2023-04-09T12:31:45.308Z,14.31
2023-04-09T12:32:45.262Z,14.35
2023-04-09T12:33:45.230Z,14.48
2023-04-09T12:34:45.218Z,14.41
2023-04-09T12:35:45.238Z,14.30
2023-04-09T12:36:45.200Z,14.17
2023-04-09T12:37:45.190Z,14.01
2023-04-09T12:38:45.174Z,13.87
2023-04-09T12:39:45.157Z,13.99
2023-04-09T12:40:45.159Z,13.96
2023-04-09T12:41:45.150Z,14.02
2023-04-09T12:42:45.143Z,13.94
2023-04-09T12:43:45.116Z,14.04
2023-04-09T12:44:45.126Z,14.26
2023-04-09T12:45:45.116Z,14.34
2023-04-09T12:46:45.082Z,14.48
2023-04-09T12:47:45.090Z,14.57
2023-04-09T12:48:45.059Z,14.52
2023-04-09T12:49:45.053Z,14.38
2023-04-09T12:50:45.036Z,14.52
2023-04-09T12:51:45.036Z,14.46
2023-04-09T12:52:45.021Z,14.49
2023-04-09T12:53:45.000Z,14.61
2023-04-09T12:54:45.001Z,14.75
2023-04-09T12:55:44.984Z,14.75
2023-04-09T12:56:44.978Z,14.82
2023-04-09T12:57:44.994Z,14.82
2023-04-09T12:58:44.961Z,14.95
2023-04-09T12:59:44.933Z,15.13
2023-04-09T13:00:44.943Z,15.01
2023-04-09T13:01:44.973Z,15.12
2023-04-09T13:02:45.094Z,15.04
2023-04-09T13:03:44.999Z,15.01
2023-04-09T13:04:44.967Z,15.05
2023-04-09T13:05:44.891Z,15.01
2023-04-09T13:06:44.864Z,15.15
2023-04-09T13:07:44.846Z,14.87
2023-04-09T13:08:44.842Z,14.87
2023-04-09T13:09:44.827Z,14.69
2023-04-09T13:10:44.833Z,14.87